createdAt,value
2023-03-28T00:02:43.670Z,7.33
2023-03-28T00:07:46.087Z,5.27
2023-03-28T00:12:48.585Z,6.00
2023-03-28T00:17:52.860Z,6.07
2023-03-28T00:22:55.240Z,7.37
2023-03-28T00:27:57.591Z,5.37
2023-03-28T00:32:59.905Z,7.77
2023-03-28T00:38:02.240Z,7.47
2023-03-28T00:43:04.744Z,6.13
2023-03-28T00:48:18.333Z,6.53
2023-03-28T00:53:26.735Z,8.80
2023-03-28T00:58:33.040Z,7.63
2023-03-28T01:03:35.952Z,7.83
2023-03-28T01:08:42.966Z,5.50
2023-03-28T01:13:49.215Z,8.93
2023-03-28T01:18:52.393Z,8.57
2023-03-28T01:24:11.659Z,9.43
2023-03-28T01:29:37.784Z,10.07
2023-03-28T01:35:07.449Z,5.32
2023-03-28T01:40:23.362Z,4.90
2023-03-28T01:45:54.528Z,5.93
2023-03-28T01:51:15.910Z,7.43
2023-03-28T01:56:24.900Z,6.43
2023-03-28T02:01:46.702Z,13.48
2023-03-28T02:06:51.308Z,8.67
2023-03-28T02:12:03.843Z,6.85
2023-03-28T02:17:22.177Z,6.77
2023-03-28T02:23:10.345Z,5.37
2023-03-28T02:28:32.916Z,5.13
2023-03-28T02:33:49.453Z,6.37
2023-03-28T02:39:10.759Z,5.33
2023-03-28T02:44:35.966Z,6.60
2023-03-28T02:49:52.834Z,6.63
2023-03-28T02:55:19.346Z,6.47
2023-03-28T03:00:51.521Z,6.60
2023-03-28T03:05:54.120Z,10.43
2023-03-28T03:10:56.824Z,6.77
2023-03-28T03:15:59.418Z,6.10
2023-03-28T03:21:02.069Z,5.97
2023-03-28T03:26:32.034Z,5.87
2023-03-28T03:31:37.360Z,10.33
2023-03-28T03:36:58.161Z,10.00
2023-03-28T03:42:00.749Z,10.07
2023-03-28T03:47:06.567Z,6.83
2023-03-28T03:52:15.454Z,10.17
2023-03-28T03:57:17.926Z,10.90
2023-03-28T04:02:20.990Z,6.43
2023-03-28T04:07:35.101Z,9.50
2023-03-28T04:12:38.982Z,6.37
2023-03-28T04:17:41.861Z,10.43
2023-03-28T04:22:55.030Z,9.60
2023-03-28T04:28:02.114Z,14.57
2023-03-28T04:33:08.553Z,11.27
2023-03-28T04:38:20.406Z,11.93
2023-03-28T04:43:30.787Z,15.03
2023-03-28T04:48:33.237Z,12.63
2023-03-28T04:53:38.099Z,11.13
2023-03-28T04:59:00.903Z,11.53
2023-03-28T05:04:44.564Z,9.33
2023-03-28T05:09:49.075Z,9.67
2023-03-28T05:14:51.541Z,13.23
2023-03-28T05:19:54.593Z,9.77
2023-03-28T05:24:59.580Z,13.10
2023-03-28T05:30:02.370Z,14.50
2023-03-28T05:35:08.987Z,10.50
2023-03-28T05:40:12.844Z,10.97
2023-03-28T05:45:17.991Z,11.67
2023-03-28T05:50:52.753Z,15.17
2023-03-28T05:55:56.966Z,20.33
2023-03-28T06:01:00.799Z,18.13
2023-03-28T06:06:08.928Z,18.70
2023-03-28T06:11:12.288Z,16.83
2023-03-28T06:16:30.047Z,17.87
2023-03-28T06:21:34.018Z,14.00
2023-03-28T06:26:41.205Z,10.47
2023-03-28T06:31:46.377Z,17.13
2023-03-28T06:36:48.817Z,16.17
2023-03-28T06:41:51.386Z,12.50
2023-03-28T06:46:59.390Z,14.27
2023-03-28T06:52:01.793Z,14.33
2023-03-28T06:57:05.630Z,29.20
2023-03-28T07:02:12.692Z,18.47
2023-03-28T07:07:16.454Z,16.47
2023-03-28T07:12:19.379Z,13.37
2023-03-28T07:17:25.933Z,10.27
2023-03-28T07:22:28.903Z,10.40
2023-03-28T07:27:31.467Z,11.43
2023-03-28T07:32:47.478Z,8.77
2023-03-28T07:37:56.157Z,8.20
2023-03-28T07:43:09.254Z,8.37
2023-03-28T07:48:11.678Z,7.87
2023-03-28T07:53:14.170Z,10.30
2023-03-28T07:58:17.228Z,6.57
2023-03-28T08:03:23.957Z,8.93
2023-03-28T08:08:27.037Z,7.47
2023-03-28T08:13:55.560Z,9.40
2023-03-28T08:19:09.950Z,5.47
2023-03-28T08:24:35.833Z,7.10
2023-03-28T08:29:50.974Z,7.67
2023-03-28T08:34:53.541Z,9.00
2023-03-28T08:39:57.668Z,5.73
2023-03-28T08:45:25.017Z,7.47
2023-03-28T08:50:37.757Z,10.70
2023-03-28T08:55:43.655Z,7.93
2023-03-28T09:00:46.852Z,9.60
2023-03-28T09:05:55.217Z,6.23
2023-03-28T09:11:03.909Z,7.15
2023-03-28T09:16:32.822Z,7.88
2023-03-28T09:22:50.064Z,4.75
2023-03-28T09:28:19.076Z,7.33
2023-03-28T09:33:31.738Z,9.03
2023-03-28T09:38:38.438Z,5.27
2023-03-28T09:43:50.582Z,9.80
2023-03-28T09:54:23.959Z,4.57
2023-03-28T09:59:31.336Z,7.13
2023-03-28T10:04:40.177Z,4.70
2023-03-28T10:09:59.206Z,5.60
2023-03-28T10:15:02.896Z,9.47
2023-03-28T10:20:25.399Z,5.17
2023-03-28T10:25:40.514Z,5.93
2023-03-28T10:30:44.695Z,5.33
2023-03-28T10:36:00.852Z,5.90
2023-03-28T10:41:10.148Z,8.03
2023-03-28T10:46:45.879Z,7.10
2023-03-28T10:51:54.061Z,6.53
2023-03-28T10:57:09.139Z,7.40
2023-03-28T11:02:30.855Z,6.27
2023-03-28T11:07:42.757Z,7.33
2023-03-28T11:13:23.084Z,8.10
2023-03-28T11:18:41.233Z,12.10
2023-03-28T11:24:36.030Z,7.67
2023-03-28T11:30:16.071Z,8.93
2023-03-28T11:35:31.932Z,12.83
2023-03-28T11:41:13.649Z,7.73
2023-03-28T11:46:41.074Z,6.23
2023-03-28T11:51:53.595Z,7.97
2023-03-28T11:57:20.100Z,7.00
2023-03-28T12:02:44.813Z,4.28
2023-03-28T12:08:13.565Z,9.87
2023-03-28T12:13:46.756Z,4.60
2023-03-28T12:18:58.971Z,4.17
2023-03-28T12:24:36.284Z,8.00
2023-03-28T12:29:57.398Z,6.30
2023-03-28T12:35:05.444Z,11.40
2023-03-28T12:40:55.261Z,6.90
2023-03-28T12:46:02.752Z,8.90
2023-03-28T12:51:16.778Z,7.00
2023-03-28T12:56:22.101Z,5.23
2023-03-28T13:01:29.729Z,7.90
2023-03-28T13:06:53.241Z,7.90
2023-03-28T13:12:03.573Z,9.63
2023-03-28T13:17:21.993Z,7.80
2023-03-28T13:22:35.274Z,8.67
2023-03-28T13:27:37.728Z,15.17
2023-03-28T13:32:46.338Z,9.23
2023-03-28T13:37:48.785Z,11.73
2023-03-28T13:43:00.615Z,6.63
2023-03-28T13:48:13.195Z,6.87
2023-03-28T13:53:16.343Z,10.30
2023-03-28T13:58:19.263Z,10.30
2023-03-28T14:03:21.699Z,10.23
2023-03-28T14:08:26.106Z,12.87
2023-03-28T14:13:30.799Z,7.93
2023-03-28T14:18:41.358Z,8.57
2023-03-28T14:23:56.364Z,11.93
2023-03-28T14:29:07.679Z,7.90
2023-03-28T14:34:27.627Z,15.40
2023-03-28T14:39:32.620Z,10.10
2023-03-28T14:44:41.876Z,8.13
2023-03-28T14:49:46.069Z,8.23
2023-03-28T14:54:49.329Z,6.77
2023-03-28T14:59:52.769Z,9.83
2023-03-28T15:04:57.433Z,8.67
2023-03-28T15:10:09.747Z,6.30
2023-03-28T15:15:25.699Z,9.60
2023-03-28T15:20:33.903Z,10.40
2023-03-28T15:25:38.983Z,6.23
2023-03-28T15:30:44.052Z,8.13
2023-03-28T15:35:47.276Z,8.23
2023-03-28T15:40:51.721Z,7.33
2023-03-28T15:45:59.913Z,6.67
2023-03-28T15:51:08.733Z,5.03
2023-03-28T15:56:23.131Z,5.43
2023-03-28T16:01:31.510Z,4.90
2023-03-28T16:06:42.212Z,6.55
2023-03-28T16:11:49.996Z,5.50
2023-03-28T16:17:16.005Z,17.33
2023-03-28T16:22:29.436Z,7.03
2023-03-28T16:27:32.716Z,7.13
2023-03-28T16:32:35.035Z,8.90
2023-03-28T16:37:37.600Z,11.93
2023-03-28T16:42:39.964Z,10.80
2023-03-28T16:47:42.480Z,8.47
2023-03-28T16:52:44.803Z,9.00
2023-03-28T16:57:47.281Z,6.90
2023-03-28T17:02:51.244Z,7.67
2023-03-28T17:07:53.528Z,10.23
2023-03-28T17:12:57.126Z,8.93
2023-03-28T17:18:01.420Z,9.20
2023-03-28T17:23:04.352Z,8.43
2023-03-28T17:28:06.838Z,10.23
2023-03-28T17:33:09.579Z,10.00
2023-03-28T17:38:12.306Z,8.03
2023-03-28T17:43:14.757Z,7.20
2023-03-28T17:48:17.738Z,7.67
2023-03-28T17:53:20.205Z,5.40
2023-03-28T17:58:22.711Z,7.23
2023-03-28T18:03:25.149Z,8.53
2023-03-28T18:08:40.323Z,8.20
2023-03-28T18:13:43.086Z,7.87
2023-03-28T18:18:45.591Z,5.40
2023-03-28T18:23:48.924Z,7.77
2023-03-28T18:28:51.379Z,5.17
2023-03-28T18:33:54.836Z,7.77
2023-03-28T18:38:59.748Z,7.67
2023-03-28T18:44:02.335Z,6.33
2023-03-28T18:49:05.937Z,9.10
2023-03-28T18:54:08.397Z,4.87
2023-03-28T18:59:11.480Z,3.47
2023-03-28T19:04:13.977Z,6.63
2023-03-28T19:09:16.773Z,5.77
2023-03-28T19:14:19.162Z,8.17
2023-03-28T19:19:21.613Z,5.27
2023-03-28T19:24:24.120Z,7.47
2023-03-28T19:29:27.833Z,5.93
2023-03-28T19:34:30.244Z,5.73
2023-03-28T19:39:32.587Z,7.30
2023-03-28T19:44:34.945Z,6.87
2023-03-28T19:49:39.942Z,5.03
2023-03-28T19:54:42.318Z,5.27
2023-03-28T19:59:44.622Z,4.87
2023-03-28T20:04:46.975Z,8.63
2023-03-28T20:09:49.660Z,6.37
2023-03-28T20:14:51.980Z,5.77
2023-03-28T20:19:54.522Z,6.07
2023-03-28T20:24:57.253Z,9.43
2023-03-28T20:29:59.608Z,6.93
2023-03-28T20:35:02.153Z,8.23
2023-03-28T20:40:05.984Z,10.50
2023-03-28T20:45:09.461Z,7.00
2023-03-28T20:50:12.004Z,6.60
2023-03-28T20:55:15.311Z,6.97
2023-03-28T21:00:18.369Z,5.87
2023-03-28T21:05:22.388Z,9.10
2023-03-28T21:10:24.835Z,6.97
2023-03-28T21:15:29.382Z,6.97
2023-03-28T21:20:31.746Z,6.83
2023-03-28T21:25:34.175Z,8.17
2023-03-28T21:30:37.508Z,6.27
2023-03-28T21:35:42.831Z,5.73
2023-03-28T21:40:46.975Z,5.60
2023-03-28T21:45:49.715Z,7.57
2023-03-28T21:50:54.097Z,7.87
2023-03-28T21:55:57.081Z,8.63
2023-03-28T22:01:00.650Z,7.67
2023-03-28T22:06:03.315Z,5.67
2023-03-28T22:11:13.719Z,5.97
2023-03-28T22:16:16.562Z,7.30
2023-03-28T22:21:18.889Z,9.27
2023-03-28T22:26:21.473Z,6.70
2023-03-28T22:31:25.607Z,6.03
2023-03-28T22:36:28.055Z,5.40
2023-03-28T22:41:32.178Z,5.80
2023-03-28T22:46:34.536Z,8.10
2023-03-28T22:51:46.424Z,7.57
2023-03-28T22:56:50.043Z,7.10
2023-03-28T23:01:52.573Z,8.37
2023-03-28T23:06:55.406Z,9.37
2023-03-28T23:11:57.798Z,6.77
2023-03-28T23:17:02.648Z,6.13
2023-03-28T23:22:07.789Z,7.43
2023-03-28T23:27:10.189Z,6.37
2023-03-28T23:32:12.482Z,8.37
2023-03-28T23:37:14.836Z,7.37
2023-03-28T23:42:17.080Z,7.17
2023-03-28T23:47:20.794Z,6.13
2023-03-28T23:52:23.103Z,7.30
2023-03-28T23:57:25.544Z,6.37
